Terminal Aerodrome Forecast
Issued by NWS

Current Version | Previous Version | Text Only | Print | Product List | Glossary On
Versions: 1 2 3 4 5 6 7 8 9 10 11 12 13
000
FTUS43 KLSX 240900 AAA
TAFCPS
TAF AMD
KCPS 240901Z 2409/2506 VRB04KT 3SM BR SCT015 BKN020
     FM241500 24005KT P6SM FEW015 SCT030
     FM242100 22007KT P6SM FEW040 SCT250
     FM250000 VRB03KT P6SM SCT250=

USA.gov is the U.S. government's official web portal to all federal, state and local government web resources and services.